createdAt,value
2023-01-04T00:00:42.854Z,0
2023-01-04T00:01:42.394Z,0
2023-01-04T00:02:43.751Z,0
2023-01-04T00:03:46.812Z,0
2023-01-04T00:04:42.417Z,0
2023-01-04T00:05:42.371Z,0
2023-01-04T00:06:42.364Z,0
2023-01-04T00:07:42.348Z,0
2023-01-04T00:08:42.591Z,0
2023-01-04T00:09:43.514Z,0
2023-01-04T00:10:42.569Z,0
2023-01-04T00:11:42.357Z,0
2023-01-04T00:12:42.331Z,0
2023-01-04T00:13:42.382Z,0
2023-01-04T00:14:45.527Z,0
2023-01-04T00:15:42.761Z,0
2023-01-04T00:16:43.044Z,0
2023-01-04T00:17:42.409Z,0
2023-01-04T00:18:42.400Z,0
2023-01-04T00:19:43.270Z,0
2023-01-04T00:20:42.444Z,0
2023-01-04T00:21:42.366Z,0
2023-01-04T00:22:42.415Z,0
2023-01-04T00:23:42.396Z,0
2023-01-04T00:24:42.459Z,0
2023-01-04T00:25:45.503Z,0
2023-01-04T00:26:42.575Z,0
2023-01-04T00:27:42.384Z,0
2023-01-04T00:28:43.243Z,0
2023-01-04T00:29:42.466Z,0
2023-01-04T00:30:45.819Z,0
2023-01-04T00:31:42.815Z,0
2023-01-04T00:32:42.394Z,0
2023-01-04T00:33:42.380Z,0
2023-01-04T00:34:42.383Z,0
2023-01-04T00:35:53.076Z,0
2023-01-04T00:36:45.626Z,0
2023-01-04T00:37:45.707Z,0
2023-01-04T00:38:42.422Z,0
2023-01-04T00:39:42.446Z,0
2023-01-04T00:40:42.354Z,0
2023-01-04T00:42:15.343Z,0
2023-01-04T00:42:42.435Z,0
2023-01-04T00:43:42.413Z,0
2023-01-04T00:44:42.497Z,0
2023-01-04T00:45:42.524Z,0
2023-01-04T00:46:42.873Z,0
2023-01-04T00:47:45.447Z,0
2023-01-04T00:49:00.599Z,0
2023-01-04T00:49:42.459Z,0
2023-01-04T00:50:42.416Z,0
2023-01-04T00:51:42.439Z,0
2023-01-04T00:52:45.345Z,0
2023-01-04T00:53:42.410Z,0
2023-01-04T00:54:42.482Z,0
2023-01-04T00:55:42.402Z,0
2023-01-04T00:56:42.412Z,0
2023-01-04T00:57:42.453Z,0
2023-01-04T00:58:45.638Z,0
2023-01-04T00:59:42.439Z,0
2023-01-04T01:00:42.412Z,0
2023-01-04T01:01:43.256Z,0
2023-01-04T01:02:43.616Z,0
2023-01-04T01:03:46.268Z,0
2023-01-04T01:04:42.494Z,0
2023-01-04T01:05:42.407Z,0
2023-01-04T01:06:42.613Z,0
2023-01-04T01:07:42.465Z,0
2023-01-04T01:08:42.430Z,0
2023-01-04T01:09:45.622Z,0
2023-01-04T01:10:42.452Z,0
2023-01-04T01:11:42.572Z,0
2023-01-04T01:12:42.416Z,0
2023-01-04T01:13:42.457Z,0
2023-01-04T01:14:45.537Z,0
2023-01-04T01:15:42.658Z,0
2023-01-04T01:17:03.293Z,0
2023-01-04T01:17:42.460Z,0
2023-01-04T01:18:42.493Z,0
2023-01-04T01:19:42.501Z,0
2023-01-04T01:20:45.264Z,0
2023-01-04T01:21:42.683Z,0
2023-01-04T01:22:42.476Z,0
2023-01-04T01:23:42.501Z,0
2023-01-04T01:24:42.472Z,0
2023-01-04T01:25:45.504Z,0
2023-01-04T01:26:42.462Z,0
2023-01-04T01:27:42.473Z,0
2023-01-04T01:28:42.476Z,0
2023-01-04T01:29:42.529Z,0
2023-01-04T01:30:42.468Z,0
2023-01-04T01:31:43.018Z,0
2023-01-04T01:32:42.553Z,0
2023-01-04T01:33:42.495Z,0
2023-01-04T01:34:42.565Z,0
2023-01-04T01:35:42.469Z,0
2023-01-04T01:36:42.449Z,0
2023-01-04T01:37:42.507Z,0
2023-01-04T01:38:42.492Z,0
2023-01-04T01:39:42.525Z,0
2023-01-04T01:40:42.504Z,0
2023-01-04T01:41:42.549Z,0
2023-01-04T01:42:42.508Z,0
2023-01-04T01:43:42.466Z,0
2023-01-04T01:44:42.506Z,0
2023-01-04T01:45:42.548Z,0
2023-01-04T01:46:42.879Z,0
2023-01-04T01:47:42.533Z,0
2023-01-04T01:48:42.522Z,0
2023-01-04T01:49:42.541Z,0
2023-01-04T01:50:42.534Z,0
2023-01-04T01:51:42.493Z,0
2023-01-04T01:52:45.343Z,0
2023-01-04T01:53:42.487Z,0
2023-01-04T01:54:42.537Z,0
2023-01-04T01:55:42.571Z,0
2023-01-04T01:56:42.558Z,0
2023-01-04T01:57:42.521Z,0
2023-01-04T01:58:42.494Z,0
2023-01-04T01:59:42.566Z,0
2023-01-04T02:00:42.501Z,0
2023-01-04T02:01:43.110Z,0
2023-01-04T02:02:43.642Z,0
2023-01-04T02:03:45.650Z,0
2023-01-04T02:04:42.550Z,0
2023-01-04T02:05:42.510Z,0
2023-01-04T02:06:42.554Z,0
2023-01-04T02:07:42.509Z,0
2023-01-04T02:08:45.555Z,0
2023-01-04T02:09:42.563Z,0
2023-01-04T02:10:42.571Z,0
2023-01-04T02:11:42.536Z,0
2023-01-04T02:12:42.529Z,0
2023-01-04T02:13:42.537Z,0
2023-01-04T02:14:42.583Z,0
2023-01-04T02:15:42.737Z,0
2023-01-04T02:16:42.863Z,0
2023-01-04T02:17:42.576Z,0
2023-01-04T02:18:42.545Z,0
2023-01-04T02:19:45.480Z,0
2023-01-04T02:20:42.531Z,0
2023-01-04T02:21:42.551Z,0
2023-01-04T02:22:42.582Z,0
2023-01-04T02:23:42.584Z,0
2023-01-04T02:24:42.560Z,0
2023-01-04T02:25:42.552Z,0
2023-01-04T02:26:42.598Z,0
2023-01-04T02:27:42.600Z,0
2023-01-04T02:28:42.548Z,0
2023-01-04T02:29:42.585Z,0
2023-01-04T02:30:45.535Z,0
2023-01-04T02:31:43.160Z,0
2023-01-04T02:32:42.564Z,0
2023-01-04T02:33:42.616Z,0
2023-01-04T02:34:45.318Z,0
2023-01-04T02:35:42.615Z,0
2023-01-04T02:36:42.571Z,0
2023-01-04T02:37:42.560Z,0
2023-01-04T02:38:42.620Z,0
2023-01-04T02:39:42.613Z,0
2023-01-04T02:40:42.602Z,0
2023-01-04T02:41:45.686Z,0
2023-01-04T02:42:42.583Z,0
2023-01-04T02:43:42.622Z,0
2023-01-04T02:44:42.622Z,0
2023-01-04T02:45:42.655Z,0
2023-01-04T02:46:43.127Z,0
2023-01-04T02:47:42.622Z,0
2023-01-04T02:48:42.620Z,0
2023-01-04T02:49:42.633Z,0
2023-01-04T02:50:42.799Z,0
2023-01-04T02:51:42.629Z,0
2023-01-04T02:52:45.379Z,0
2023-01-04T02:53:42.571Z,0
2023-01-04T02:54:42.668Z,0
2023-01-04T02:55:42.574Z,0
2023-01-04T02:56:42.880Z,0
2023-01-04T02:57:45.383Z,0
2023-01-04T02:58:42.648Z,0
2023-01-04T02:59:42.687Z,0
2023-01-04T03:00:42.597Z,0
2023-01-04T03:01:43.414Z,0
2023-01-04T03:02:43.823Z,0
2023-01-04T03:03:46.221Z,0
2023-01-04T03:04:42.631Z,0
2023-01-04T03:05:42.736Z,0
2023-01-04T03:06:42.613Z,0
2023-01-04T03:07:42.644Z,0
2023-01-04T03:08:45.399Z,0
2023-01-04T03:09:42.644Z,0
2023-01-04T03:10:42.648Z,0
2023-01-04T03:11:42.625Z,0
2023-01-04T03:12:42.639Z,0
2023-01-04T03:13:42.642Z,0
2023-01-04T03:14:46.891Z,0
2023-01-04T03:15:42.595Z,0
2023-01-04T03:16:43.015Z,0
2023-01-04T03:17:42.639Z,0
2023-01-04T03:18:42.632Z,0
2023-01-04T03:19:45.487Z,0
2023-01-04T03:20:42.616Z,0
2023-01-04T03:21:42.889Z,0
2023-01-04T03:22:42.658Z,0
2023-01-04T03:23:42.699Z,0
2023-01-04T03:24:42.631Z,0
2023-01-04T03:25:45.677Z,0
2023-01-04T03:26:42.502Z,0
2023-01-04T03:28:42.662Z,0
2023-01-04T03:29:42.659Z,0
2023-01-04T03:30:46.346Z,0
2023-01-04T03:31:43.110Z,0
2023-01-04T03:32:42.662Z,0
2023-01-04T03:33:42.634Z,0
2023-01-04T03:34:42.669Z,0
2023-01-04T03:35:42.711Z,0
2023-01-04T03:36:45.679Z,0
2023-01-04T03:37:42.686Z,0
2023-01-04T03:38:42.699Z,0
2023-01-04T03:39:42.542Z,0
2023-01-04T03:40:42.700Z,0
2023-01-04T03:41:45.699Z,0
2023-01-04T03:42:42.686Z,0
2023-01-04T03:43:42.717Z,0
2023-01-04T03:44:42.669Z,0
2023-01-04T03:45:42.687Z,0
2023-01-04T03:46:43.047Z,0
2023-01-04T03:47:45.545Z,0
2023-01-04T03:48:42.696Z,0
2023-01-04T03:49:42.741Z,0
2023-01-04T03:50:42.720Z,0
2023-01-04T03:51:42.698Z,0
2023-01-04T03:52:45.898Z,0
2023-01-04T03:53:42.723Z,0
2023-01-04T03:54:42.716Z,0
2023-01-04T03:55:42.731Z,0
2023-01-04T03:56:42.884Z,0
2023-01-04T03:57:42.745Z,0
2023-01-04T03:58:42.693Z,0
2023-01-04T03:59:42.711Z,0
2023-01-04T04:00:43.091Z,0
2023-01-04T04:01:43.525Z,0
2023-01-04T04:02:42.744Z,0
2023-01-04T04:03:42.980Z,0
2023-01-04T04:04:42.798Z,0
2023-01-04T04:05:42.764Z,0
2023-01-04T04:06:42.718Z,0
2023-01-04T04:07:42.749Z,0
2023-01-04T04:08:42.743Z,0
2023-01-04T04:09:42.716Z,0
2023-01-04T04:10:42.766Z,0
2023-01-04T04:11:42.759Z,0
2023-01-04T04:12:42.729Z,0
2023-01-04T04:13:42.599Z,0
2023-01-04T04:14:42.767Z,0
2023-01-04T04:15:42.599Z,0
2023-01-04T04:16:43.068Z,0
2023-01-04T04:17:42.786Z,0
2023-01-04T04:18:42.777Z,0
2023-01-04T04:19:45.683Z,0
2023-01-04T04:20:42.794Z,0
2023-01-04T04:21:42.764Z,0
2023-01-04T04:22:42.756Z,0
2023-01-04T04:23:42.744Z,0
2023-01-04T04:24:42.780Z,0
2023-01-04T04:25:42.757Z,0
2023-01-04T04:26:42.770Z,0
2023-01-04T04:27:42.795Z,0
2023-01-04T04:28:42.761Z,0
2023-01-04T04:29:42.901Z,0
2023-01-04T04:30:46.518Z,0
2023-01-04T04:31:43.050Z,0
2023-01-04T04:32:42.750Z,0
2023-01-04T04:33:42.622Z,0
2023-01-04T04:34:42.819Z,0
2023-01-04T04:35:45.875Z,0
2023-01-04T04:36:42.755Z,0
2023-01-04T04:37:42.752Z,0
2023-01-04T04:38:42.760Z,0
2023-01-04T04:39:42.766Z,0
2023-01-04T04:40:42.838Z,0
2023-01-04T04:41:45.618Z,0
2023-01-04T04:42:42.758Z,0
2023-01-04T04:43:42.839Z,0
2023-01-04T04:44:42.833Z,0
2023-01-04T04:45:42.995Z,0
2023-01-04T04:46:45.677Z,0
2023-01-04T04:47:42.775Z,0
2023-01-04T04:48:42.805Z,0
2023-01-04T04:49:42.796Z,0
2023-01-04T04:50:42.800Z,0
2023-01-04T04:51:42.816Z,0
2023-01-04T04:52:42.797Z,0
2023-01-04T04:53:42.777Z,0
2023-01-04T04:54:42.798Z,0
2023-01-04T04:55:42.797Z,0
2023-01-04T04:56:42.809Z,0
2023-01-04T04:57:45.830Z,0
2023-01-04T04:58:42.812Z,0
2023-01-04T04:59:42.851Z,0
2023-01-04T05:00:42.947Z,0
2023-01-04T05:01:43.684Z,0
2023-01-04T05:02:43.658Z,0
2023-01-04T05:03:42.962Z,0
2023-01-04T05:04:42.787Z,0
2023-01-04T05:05:42.801Z,0
2023-01-04T05:06:42.858Z,0
2023-01-04T05:07:42.811Z,0
2023-01-04T05:08:45.740Z,0
2023-01-04T05:09:42.840Z,0
2023-01-04T05:10:42.825Z,0
2023-01-04T05:11:42.952Z,0
2023-01-04T05:12:42.835Z,0
2023-01-04T05:13:42.871Z,0
2023-01-04T05:14:42.844Z,0
2023-01-04T05:15:42.903Z,0
2023-01-04T05:16:43.575Z,0
2023-01-04T05:17:42.882Z,0
2023-01-04T05:18:42.809Z,0
2023-01-04T05:19:45.967Z,0
2023-01-04T05:20:42.861Z,0
2023-01-04T05:21:42.888Z,0
2023-01-04T05:22:42.855Z,0
2023-01-04T05:23:42.853Z,0
2023-01-04T05:24:45.912Z,0
2023-01-04T05:25:42.851Z,0
2023-01-04T05:26:42.904Z,0
2023-01-04T05:27:42.936Z,0
2023-01-04T05:28:44.923Z,0
2023-01-04T05:29:43.012Z,0
2023-01-04T05:30:46.006Z,0
2023-01-04T05:31:43.378Z,0
2023-01-04T05:32:42.820Z,0
2023-01-04T05:33:42.875Z,0
2023-01-04T05:34:42.827Z,0
2023-01-04T05:35:45.663Z,0
2023-01-04T05:36:42.865Z,0
2023-01-04T05:37:42.852Z,0
2023-01-04T05:38:42.888Z,0
2023-01-04T05:39:42.872Z,0
2023-01-04T05:40:42.863Z,0
2023-01-04T05:45:43.145Z,0
2023-01-04T05:46:48.522Z,0
2023-01-04T05:48:42.851Z,0
2023-01-04T05:49:42.903Z,0
2023-01-04T05:50:42.936Z,0
2023-01-04T05:51:42.874Z,0
2023-01-04T06:05:33.810Z,0
2023-01-04T06:06:42.836Z,0
2023-01-04T06:07:43.311Z,0
2023-01-04T06:08:46.236Z,0
2023-01-04T06:09:43.316Z,0
2023-01-04T06:10:43.339Z,0
2023-01-04T06:11:43.153Z,0
2023-01-04T06:12:43.326Z,0
2023-01-04T06:13:43.331Z,0
2023-01-04T06:14:46.335Z,0
2023-01-04T06:15:48.180Z,0
2023-01-04T06:16:43.308Z,0
2023-01-04T06:17:43.338Z,0
2023-01-04T06:18:43.314Z,0
2023-01-04T06:19:51.865Z,0
2023-01-04T06:20:43.260Z,0
2023-01-04T06:21:43.390Z,0
2023-01-04T06:22:44.151Z,0
2023-01-04T06:23:43.361Z,0
2023-01-04T06:24:43.163Z,0
2023-01-04T06:25:43.374Z,0
2023-01-04T06:26:43.360Z,0
2023-01-04T06:27:43.436Z,0
2023-01-04T06:28:47.664Z,0
2023-01-04T06:29:43.021Z,0
2023-01-04T06:30:43.606Z,0
2023-01-04T06:31:43.340Z,0
2023-01-04T06:32:43.349Z,0
2023-01-04T06:33:43.490Z,0
2023-01-04T06:34:43.350Z,0
2023-01-04T06:35:43.378Z,0
2023-01-04T06:36:43.092Z,0
2023-01-04T06:37:43.434Z,0
2023-01-04T06:38:42.884Z,0
2023-01-04T06:39:43.032Z,0
2023-01-04T06:40:43.392Z,0
2023-01-04T06:41:43.340Z,0
2023-01-04T06:42:43.351Z,0
2023-01-04T06:43:43.395Z,0
2023-01-04T06:44:43.391Z,0
2023-01-04T06:45:43.263Z,0
2023-01-04T06:46:46.827Z,0
2023-01-04T06:47:43.413Z,0
2023-01-04T06:48:43.385Z,4
2023-01-04T06:49:43.217Z,0
2023-01-04T06:50:43.550Z,0
2023-01-04T06:51:43.303Z,0
2023-01-04T06:52:43.505Z,4
2023-01-04T06:53:43.395Z,0
2023-01-04T06:54:43.222Z,4
2023-01-04T06:55:43.407Z,0
2023-01-04T06:56:43.240Z,0
2023-01-04T06:57:46.407Z,0
2023-01-04T06:58:43.376Z,4
2023-01-04T06:59:43.410Z,0
2023-01-04T07:00:43.451Z,4
2023-01-04T07:01:44.220Z,0
2023-01-04T07:03:19.245Z,0
2023-01-04T07:03:43.377Z,4
2023-01-04T07:04:43.929Z,0
2023-01-04T07:05:43.316Z,4
2023-01-04T07:06:43.378Z,4
2023-01-04T07:07:43.423Z,8
2023-01-04T07:08:46.401Z,4
2023-01-04T07:09:43.455Z,4
2023-01-04T07:10:43.433Z,4
2023-01-04T07:11:43.395Z,8
2023-01-04T07:12:43.240Z,8
2023-01-04T07:13:46.462Z,8
2023-01-04T07:14:43.270Z,8
2023-01-04T07:15:50.329Z,12
2023-01-04T07:16:43.824Z,8
2023-01-04T07:17:43.434Z,12
2023-01-04T07:18:43.072Z,12
2023-01-04T07:19:43.424Z,16
2023-01-04T07:20:43.129Z,16
2023-01-04T07:21:43.426Z,20
2023-01-04T07:22:43.454Z,20
2023-01-04T07:23:44.447Z,20
2023-01-04T07:24:46.382Z,24
2023-01-04T07:25:43.462Z,24
2023-01-04T07:26:43.441Z,24
2023-01-04T07:27:43.447Z,24
2023-01-04T07:28:43.438Z,24
2023-01-04T07:29:43.293Z,28
2023-01-04T07:30:43.719Z,28
2023-01-04T07:31:43.360Z,28
2023-01-04T07:32:43.326Z,28
2023-01-04T07:33:43.294Z,28
2023-01-04T07:34:43.467Z,28
2023-01-04T07:35:46.192Z,24
2023-01-04T07:36:43.439Z,28
2023-01-04T07:37:43.418Z,28
2023-01-04T07:38:43.536Z,28
2023-01-04T07:39:43.451Z,28
2023-01-04T07:41:02.879Z,32
2023-01-04T07:41:43.477Z,32
2023-01-04T07:42:43.465Z,32
2023-01-04T07:43:43.477Z,32
2023-01-04T07:44:43.475Z,36
2023-01-04T07:45:43.481Z,40
2023-01-04T07:46:46.979Z,44
2023-01-04T07:47:43.130Z,40
2023-01-04T07:48:43.138Z,44
2023-01-04T07:49:43.478Z,44
2023-01-04T07:50:43.302Z,40
2023-01-04T07:51:44.189Z,40
2023-01-04T07:52:43.488Z,36
2023-01-04T07:53:43.474Z,36
2023-01-04T07:54:43.467Z,32
2023-01-04T07:55:43.511Z,32
2023-01-04T07:56:43.245Z,32
2023-01-04T07:57:46.235Z,28
2023-01-04T07:58:43.487Z,32
2023-01-04T07:59:43.462Z,28
2023-01-04T08:00:43.554Z,32
2023-01-04T08:01:43.957Z,32
2023-01-04T08:02:47.245Z,32
2023-01-04T08:03:43.399Z,32
2023-01-04T08:04:43.974Z,32
2023-01-04T08:05:43.548Z,32
2023-01-04T08:06:43.555Z,32
2023-01-04T08:07:43.708Z,32
2023-01-04T08:08:46.353Z,36
2023-01-04T08:09:43.494Z,32
2023-01-04T08:10:43.523Z,32
2023-01-04T08:11:43.545Z,32
2023-01-04T08:12:43.599Z,32
2023-01-04T08:13:46.431Z,32
2023-01-04T08:14:43.489Z,36
2023-01-04T08:15:43.634Z,36
2023-01-04T08:16:43.793Z,36
2023-01-04T08:17:43.528Z,32
2023-01-04T08:18:43.614Z,32
2023-01-04T08:19:46.275Z,32
2023-01-04T08:20:43.546Z,36
2023-01-04T08:21:43.676Z,36
2023-01-04T08:22:43.505Z,36
2023-01-04T08:23:43.505Z,32
2023-01-04T08:24:46.369Z,32
2023-01-04T08:25:43.554Z,32
2023-01-04T08:26:43.547Z,36
2023-01-04T08:27:43.526Z,32
2023-01-04T08:28:43.582Z,36
2023-01-04T08:29:43.589Z,36
2023-01-04T08:30:46.528Z,36
2023-01-04T08:31:44.160Z,40
2023-01-04T08:32:43.611Z,44
2023-01-04T08:33:43.510Z,44
2023-01-04T08:34:43.541Z,48
2023-01-04T08:35:46.686Z,48
2023-01-04T08:36:43.538Z,52
2023-01-04T08:37:43.561Z,52
2023-01-04T08:39:13.539Z,60
2023-01-04T08:39:52.024Z,56
2023-01-04T08:42:07.801Z,64
2023-01-04T08:42:38.122Z,68
2023-01-04T08:43:32.300Z,68
2023-01-04T08:44:32.388Z,72
2023-01-04T08:45:35.059Z,80
2023-01-04T08:46:32.601Z,80
2023-01-04T08:47:32.417Z,88
2023-01-04T08:48:32.337Z,88
2023-01-04T08:49:32.373Z,92
2023-01-04T08:50:32.329Z,92
2023-01-04T08:51:35.315Z,96
2023-01-04T08:52:32.330Z,100
2023-01-04T08:53:32.105Z,96
2023-01-04T08:54:32.486Z,96
2023-01-04T08:55:32.326Z,96
2023-01-04T08:56:35.074Z,92
2023-01-04T08:57:32.355Z,84
2023-01-04T08:58:32.275Z,80
2023-01-04T08:59:32.320Z,76
2023-01-04T09:00:32.563Z,72
2023-01-04T09:01:33.002Z,72
2023-01-04T09:02:36.490Z,72
2023-01-04T09:03:32.619Z,72
2023-01-04T09:04:32.671Z,72
2023-01-04T09:05:32.331Z,72
2023-01-04T09:06:32.342Z,72
2023-01-04T09:07:35.280Z,72
2023-01-04T09:08:32.320Z,72
2023-01-04T09:09:32.377Z,72
2023-01-04T09:10:32.321Z,72
2023-01-04T09:11:32.368Z,76
2023-01-04T09:12:32.341Z,76
2023-01-04T09:13:32.149Z,76
2023-01-04T09:14:32.317Z,80
2023-01-04T09:15:32.185Z,84
2023-01-04T09:16:32.796Z,88
2023-01-04T09:17:32.408Z,92
2023-01-04T09:18:40.336Z,96
2023-01-04T09:19:32.344Z,96
2023-01-04T09:20:32.351Z,92
2023-01-04T09:21:32.780Z,96
2023-01-04T09:22:32.436Z,92
2023-01-04T09:23:32.157Z,96
2023-01-04T09:24:32.364Z,92
2023-01-04T09:25:32.360Z,96
2023-01-04T09:26:32.408Z,92
2023-01-04T09:27:32.351Z,92
2023-01-04T09:28:32.349Z,88
2023-01-04T09:29:32.371Z,84
2023-01-04T09:30:35.458Z,84
2023-01-04T09:31:32.663Z,88
2023-01-04T09:32:32.445Z,84
2023-01-04T09:34:24.930Z,92
2023-01-04T09:34:34.605Z,92
2023-01-04T09:35:34.394Z,96
2023-01-04T09:36:34.440Z,96
2023-01-04T09:37:34.419Z,100
2023-01-04T09:38:34.443Z,104
2023-01-04T09:39:34.416Z,108
2023-01-04T09:40:34.422Z,104
2023-01-04T09:41:34.511Z,108
2023-01-04T09:42:42.434Z,112
2023-01-04T09:43:34.362Z,120
2023-01-04T09:45:28.352Z,128
2023-01-04T09:46:38.031Z,136
2023-01-04T09:47:37.898Z,140
2023-01-04T09:48:40.539Z,136
2023-01-04T09:49:37.825Z,128
2023-01-04T09:50:37.832Z,116
2023-01-04T09:51:37.672Z,104
2023-01-04T09:52:37.870Z,100
2023-01-04T09:53:37.711Z,100
2023-01-04T09:54:37.857Z,104
2023-01-04T09:55:47.019Z,108
2023-01-04T09:56:40.585Z,112
2023-01-04T09:57:37.828Z,120
2023-01-04T09:58:37.685Z,124
2023-01-04T09:59:37.865Z,132
2023-01-04T10:00:46.312Z,144
2023-01-04T10:01:38.726Z,156
2023-01-04T10:02:38.755Z,164
2023-01-04T10:03:38.500Z,172
2023-01-04T10:04:37.865Z,176
2023-01-04T10:05:37.895Z,176
2023-01-04T10:06:37.898Z,164
2023-01-04T10:07:40.935Z,144
2023-01-04T10:08:37.891Z,124
2023-01-04T10:09:37.720Z,108
2023-01-04T10:10:37.877Z,100
2023-01-04T10:11:37.864Z,96
2023-01-04T10:12:37.853Z,92
2023-01-04T10:13:37.976Z,84
2023-01-04T10:14:37.872Z,84
2023-01-04T10:15:37.863Z,84
2023-01-04T10:21:37.030Z,72
2023-01-04T10:21:46.882Z,72
2023-01-04T10:22:46.615Z,72
2023-01-04T10:23:46.659Z,76
2023-01-04T10:24:52.558Z,84
2023-01-04T10:25:46.440Z,84
2023-01-04T10:26:46.438Z,88
2023-01-04T10:27:49.922Z,88
2023-01-04T10:28:46.641Z,92
2023-01-04T10:29:46.615Z,96
2023-01-04T10:30:49.438Z,100
2023-01-04T10:31:50.930Z,96
2023-01-04T10:32:46.611Z,96
2023-01-04T10:33:46.651Z,92
2023-01-04T10:34:46.649Z,96
2023-01-04T10:35:49.452Z,100
2023-01-04T10:36:46.714Z,108
2023-01-04T10:37:46.497Z,116
2023-01-04T10:38:46.670Z,128
2023-01-04T10:39:46.825Z,132
2023-01-04T10:40:49.663Z,132
2023-01-04T10:41:46.475Z,136
2023-01-04T10:42:46.647Z,136
2023-01-04T10:44:22.823Z,136
2023-01-04T10:44:46.655Z,140
2023-01-04T10:45:46.662Z,140
2023-01-04T10:46:50.053Z,140
2023-01-04T10:47:46.985Z,132
2023-01-04T10:48:46.703Z,124
2023-01-04T10:49:46.532Z,116
2023-01-04T10:50:46.659Z,108
2023-01-04T10:51:46.752Z,104
2023-01-04T10:52:46.724Z,96
2023-01-04T10:53:46.731Z,92
2023-01-04T10:54:46.657Z,92
2023-01-04T10:56:34.380Z,92
2023-01-04T10:57:49.744Z,96
2023-01-04T10:58:46.702Z,92
2023-01-04T10:59:46.774Z,92
2023-01-04T11:00:47.013Z,92
2023-01-04T11:01:47.949Z,96
2023-01-04T11:02:47.544Z,96
2023-01-04T11:03:47.155Z,100
2023-01-04T11:04:46.683Z,92
2023-01-04T11:05:46.678Z,80
2023-01-04T11:06:46.726Z,80
2023-01-04T11:07:46.746Z,84
2023-01-04T11:08:49.533Z,80
2023-01-04T11:09:46.712Z,80
2023-01-04T11:10:46.684Z,80
2023-01-04T11:11:46.669Z,80
2023-01-04T11:12:46.666Z,76
2023-01-04T11:13:46.797Z,76
2023-01-04T11:14:46.722Z,76
2023-01-04T11:15:46.689Z,76
2023-01-04T11:16:47.123Z,76
2023-01-04T11:17:46.712Z,76
2023-01-04T11:18:46.748Z,72
2023-01-04T11:19:46.720Z,76
2023-01-04T11:20:46.952Z,80
2023-01-04T11:21:46.758Z,84
2023-01-04T11:22:46.988Z,84
2023-01-04T11:23:46.847Z,80
2023-01-04T11:25:39.087Z,80
2023-01-04T11:25:56.242Z,84
2023-01-04T11:26:48.515Z,80
2023-01-04T11:27:48.584Z,76
2023-01-04T11:28:48.561Z,76
2023-01-04T11:29:48.563Z,80
2023-01-04T11:30:48.521Z,80
2023-01-04T11:31:48.946Z,80
2023-01-04T11:32:48.555Z,80
2023-01-04T11:33:48.548Z,80
2023-01-04T11:34:48.423Z,76
2023-01-04T11:35:52.788Z,88
2023-01-04T11:36:48.581Z,96
2023-01-04T11:37:48.561Z,92
2023-01-04T11:38:48.590Z,96
2023-01-04T11:39:48.582Z,108
2023-01-04T11:40:51.596Z,116
2023-01-04T11:41:51.561Z,136
2023-01-04T11:42:48.598Z,144
2023-01-04T11:43:48.822Z,148
2023-01-04T11:44:48.549Z,132
2023-01-04T11:45:48.745Z,116
2023-01-04T11:46:51.599Z,104
2023-01-04T11:47:48.561Z,96
2023-01-04T11:48:48.585Z,80
2023-01-04T11:49:48.553Z,80
2023-01-04T11:50:48.631Z,80
2023-01-04T11:51:51.582Z,84
2023-01-04T11:52:48.562Z,96
2023-01-04T11:53:48.602Z,104
2023-01-04T11:54:48.602Z,104
2023-01-04T11:55:51.412Z,104
2023-01-04T11:56:48.637Z,100
2023-01-04T11:57:48.657Z,88
2023-01-04T11:58:48.646Z,88
2023-01-04T11:59:48.596Z,88
2023-01-04T12:00:48.556Z,80
2023-01-04T12:01:48.917Z,76
2023-01-04T12:03:08.099Z,68
2023-01-04T12:03:48.603Z,72
2023-01-04T12:04:48.665Z,84
2023-01-04T12:05:48.552Z,92
2023-01-04T12:06:48.635Z,100
2023-01-04T12:07:48.599Z,112
2023-01-04T12:08:48.700Z,112
2023-01-04T12:09:48.609Z,104
2023-01-04T12:10:48.605Z,100
2023-01-04T12:11:48.475Z,104
2023-01-04T12:12:48.650Z,112
2023-01-04T12:13:51.473Z,120
2023-01-04T12:14:48.613Z,128
2023-01-04T12:15:48.771Z,132
2023-01-04T12:16:48.613Z,140
2023-01-04T12:17:50.245Z,144
2023-01-04T12:18:48.640Z,144
2023-01-04T12:19:48.613Z,136
2023-01-04T12:20:48.603Z,140
2023-01-04T12:21:48.598Z,132
2023-01-04T12:22:48.602Z,128
2023-01-04T12:23:48.652Z,120
2023-01-04T12:25:00.254Z,116
2023-01-04T12:25:48.691Z,116
2023-01-04T12:26:48.644Z,108
2023-01-04T12:27:48.631Z,104
2023-01-04T12:28:48.878Z,112
2023-01-04T12:29:48.660Z,132
2023-01-04T12:30:48.747Z,144
2023-01-04T12:31:48.597Z,152
2023-01-04T12:32:48.901Z,160
2023-01-04T12:33:48.668Z,176
2023-01-04T12:34:48.656Z,184
2023-01-04T12:35:51.593Z,188
2023-01-04T12:36:48.633Z,188
2023-01-04T12:37:48.735Z,184
2023-01-04T12:38:48.675Z,180
2023-01-04T12:39:48.675Z,172
2023-01-04T12:40:51.747Z,164
2023-01-04T12:41:48.645Z,156
2023-01-04T12:42:48.672Z,140
2023-01-04T12:43:53.963Z,120
2023-01-04T12:44:48.704Z,112
2023-01-04T12:45:48.981Z,112
2023-01-04T12:46:51.885Z,108
2023-01-04T12:47:48.689Z,112
2023-01-04T12:48:48.679Z,108
2023-01-04T12:49:48.668Z,108
2023-01-04T12:51:33.785Z,104
2023-01-04T12:53:10.468Z,112
2023-01-04T12:53:37.845Z,116
2023-01-04T12:54:37.485Z,132
2023-01-04T12:55:44.396Z,140
2023-01-04T12:56:40.483Z,144
2023-01-04T12:57:43.645Z,148
2023-01-04T12:59:37.565Z,140
2023-01-04T12:59:47.065Z,136
2023-01-04T13:00:47.042Z,132
2023-01-04T13:01:47.636Z,128
2023-01-04T13:02:51.381Z,124
2023-01-04T13:03:47.177Z,116
2023-01-04T13:04:46.897Z,116
2023-01-04T13:06:04.623Z,116
2023-01-04T13:06:47.350Z,120
2023-01-04T13:07:47.043Z,116
2023-01-04T13:08:50.038Z,112
2023-01-04T13:09:53.235Z,108
2023-01-04T13:10:47.036Z,104
2023-01-04T13:11:47.082Z,100
2023-01-04T13:12:46.877Z,100
2023-01-04T13:13:49.676Z,104
2023-01-04T13:14:47.228Z,104
2023-01-04T13:15:47.055Z,92
2023-01-04T13:16:47.320Z,96
2023-01-04T13:17:47.058Z,88
2023-01-04T13:18:47.062Z,96
2023-01-04T13:19:47.086Z,108
2023-01-04T13:20:47.052Z,100
2023-01-04T13:21:47.103Z,80
2023-01-04T13:22:47.060Z,72
2023-01-04T13:23:47.076Z,72
2023-01-04T13:24:49.856Z,68
2023-01-04T13:25:47.091Z,72
2023-01-04T13:26:47.194Z,68
2023-01-04T13:27:47.059Z,64
2023-01-04T13:28:47.097Z,64
2023-01-04T13:29:47.109Z,64
2023-01-04T13:30:47.356Z,64
2023-01-04T13:31:47.569Z,68
2023-01-04T13:33:31.560Z,64
2023-01-04T13:33:47.275Z,68
2023-01-04T13:34:47.121Z,64
2023-01-04T13:35:49.931Z,68
2023-01-04T13:36:47.115Z,68
2023-01-04T13:37:47.109Z,68
2023-01-04T13:38:47.109Z,68
2023-01-04T13:39:47.128Z,60
2023-01-04T13:40:54.439Z,56
2023-01-04T13:41:47.114Z,56
2023-01-04T13:42:47.104Z,56
2023-01-04T13:43:47.125Z,60
2023-01-04T13:45:25.990Z,64
2023-01-04T13:45:47.324Z,64
2023-01-04T13:46:47.355Z,72
2023-01-04T13:47:47.150Z,76
2023-01-04T13:48:47.170Z,80
2023-01-04T13:49:47.136Z,84
2023-01-04T13:50:47.420Z,84
2023-01-04T13:51:49.913Z,92
2023-01-04T13:53:13.069Z,88
2023-01-04T13:53:47.170Z,88
2023-01-04T13:54:47.135Z,92
2023-01-04T13:55:47.133Z,92
2023-01-04T13:56:55.748Z,88
2023-01-04T13:57:47.117Z,88
2023-01-04T13:58:47.216Z,96
2023-01-04T13:59:47.143Z,100
2023-01-04T14:34:57.903Z,40
2023-01-04T14:36:07.535Z,40
2023-01-04T14:37:07.729Z,36
2023-01-04T14:38:07.473Z,40
2023-01-04T14:39:07.481Z,32
2023-01-04T14:40:07.633Z,32
2023-01-04T14:41:07.585Z,32
2023-01-04T14:42:07.551Z,28
2023-01-04T14:43:10.382Z,24
2023-01-04T14:44:07.532Z,24
2023-01-04T14:45:07.508Z,20
2023-01-04T14:46:07.802Z,20
2023-01-04T14:47:07.943Z,16
2023-01-04T14:48:10.555Z,16
2023-01-04T14:49:07.541Z,16
2023-01-04T14:50:07.803Z,12
2023-01-04T14:51:07.577Z,8
2023-01-04T14:52:07.578Z,12
2023-01-04T14:53:07.551Z,8
2023-01-04T14:54:10.584Z,8
2023-01-04T14:55:07.658Z,8
2023-01-04T14:56:07.521Z,4
2023-01-04T14:57:07.487Z,8
2023-01-04T14:58:07.526Z,8
2023-01-04T14:59:10.385Z,8
2023-01-04T15:00:07.817Z,8
2023-01-04T15:01:07.550Z,8
2023-01-04T15:02:08.532Z,8
2023-01-04T15:03:08.703Z,8
2023-01-04T15:04:07.929Z,8
2023-01-04T15:05:07.617Z,8
2023-01-04T15:06:07.646Z,4
2023-01-04T15:07:07.641Z,8
2023-01-04T15:08:07.677Z,8
2023-01-04T15:09:07.548Z,4
2023-01-04T15:10:09.212Z,4
2023-01-04T15:11:07.539Z,4
2023-01-04T15:12:07.515Z,4
2023-01-04T15:13:07.596Z,4
2023-01-04T15:14:07.670Z,4
2023-01-04T15:15:07.652Z,4
2023-01-04T15:16:07.930Z,4
2023-01-04T15:17:07.465Z,4
2023-01-04T15:18:07.543Z,4
2023-01-04T15:19:07.733Z,0
2023-01-04T15:20:07.646Z,0
2023-01-04T15:21:07.630Z,0
2023-01-04T15:22:07.710Z,0
2023-01-04T15:23:07.594Z,0
2023-01-04T15:24:07.527Z,4
2023-01-04T15:25:07.600Z,4
2023-01-04T15:26:07.685Z,4
2023-01-04T15:27:07.553Z,4
2023-01-04T15:28:07.558Z,0